Time;durP1;ratioP1;P1;durP2;ratioP2;P2;SDS_P1;SDS_P2;PMS_P1;PMS_P2;Temp;Humidity;BMP_temperature;BMP_pressure;BME280_temperature;BME280_humidity;BME280_pressure;Samples;Min_cycle;Max_cycle;Signal;HPM_P1;HPM_P2
2021/12/22 00:01:24;;;;;;;4.60;1.92;;;;;;;;;;6137052;23;20009;-77
2021/12/22 00:03:50;;;;;;;2.30;1.58;;;;;;;;;;6139928;23;19997;-78
2021/12/22 00:06:22;;;;;;;2.25;1.75;;;;;;;;;;6116444;23;20016;-76
2021/12/22 00:08:48;;;;;;;;;;;;;;;;;;6144214;23;20009;-77
2021/12/22 00:11:15;;;;;;;3.38;1.83;;;;;;;;;;6142581;23;19904;-76
2021/12/22 00:13:41;;;;;;;2.80;1.80;;;;;;;;;;6116083;23;20318;-75
2021/12/22 00:16:07;;;;;;;3.42;1.55;;;;;;;;;;6142310;23;20009;-76
2021/12/22 00:18:34;;;;;;;13.10;6.35;;;;;;;;;;6143621;23;19997;-75
2021/12/22 00:21:00;;;;;;;7.53;4.90;;;;;;;;;;6142056;23;20105;-79
2021/12/22 00:23:26;;;;;;;6.03;3.30;;;;;;;;;;6142947;23;20021;-75
2021/12/22 00:25:52;;;;;;;4.03;2.63;;;;;;;;;;6142806;23;20455;-75
2021/12/22 00:28:19;;;;;;;5.43;2.80;;;;;;;;;;6141934;23;20037;-79
2021/12/22 00:30:46;;;;;;;6.10;2.47;;;;;;;;;;6143175;23;20010;-78
2021/12/22 00:33:13;;;;;;;4.50;2.33;;;;;;;;;;6144294;23;20001;-78
2021/12/22 00:35:43;;;;;;;2.97;2.10;;;;;;;;;;6142671;23;20009;-76
2021/12/22 00:38:10;;;;;;;4.68;2.00;;;;;;;;;;6142573;23;20006;-77
2021/12/22 00:40:37;;;;;;;3.85;1.98;;;;;;;;;;6142475;23;20112;-78
2021/12/22 00:43:03;;;;;;;4.85;2.08;;;;;;;;;;6117458;23;20379;-78
2021/12/22 00:45:32;;;;;;;4.15;2.20;;;;;;;;;;6115520;23;20025;-76
2021/12/22 00:47:58;;;;;;;3.17;2.00;;;;;;;;;;6143589;23;20028;-76
2021/12/22 00:50:25;;;;;;;5.85;2.15;;;;;;;;;;6141242;23;20040;-77
2021/12/22 00:52:51;;;;;;;2.28;1.90;;;;;;;;;;6143168;23;19997;-79
2021/12/22 00:55:19;;;;;;;3.95;1.83;;;;;;;;;;6143840;23;20485;-79
2021/12/22 00:57:46;;;;;;;2.25;1.70;;;;;;;;;;6142281;23;20048;-75
2021/12/22 01:00:12;;;;;;;3.05;2.03;;;;;;;;;;6140394;23;20673;-76
2021/12/22 01:02:39;;;;;;;4.43;2.20;;;;;;;;;;6144237;23;20024;-76
2021/12/22 01:05:06;;;;;;;2.50;1.80;;;;;;;;;;6115443;23;20532;-76
2021/12/22 01:07:32;;;;;;;7.03;2.30;;;;;;;;;;6142917;23;19998;-76
2021/12/22 01:09:58;;;;;;;4.65;2.05;;;;;;;;;;6142822;23;20013;-76
2021/12/22 01:12:24;;;;;;;2.53;1.85;;;;;;;;;;6143830;23;20081;-76
2021/12/22 01:14:51;;;;;;;3.47;2.20;;;;;;;;;;6141819;23;20100;-76
2021/12/22 01:17:18;;;;;;;4.07;2.13;;;;;;;;;;6140757;23;20364;-74
2021/12/22 01:22:37;;;;;;;2.70;1.95;;;;;;;;;;6149415;23;20092;-77
2021/12/22 01:25:06;;;;;;;3.00;2.03;;;;;;;;;;6145788;23;20219;-77
2021/12/22 01:27:37;;;;;;;3.33;1.88;;;;;;;;;;6146277;23;20748;-76
2021/12/22 01:30:09;;;;;;;4.88;2.55;;;;;;;;;;6145701;23;20081;-76
2021/12/22 01:32:36;;;;;;;4.60;1.95;;;;;;;;;;6146661;23;20002;-76
2021/12/22 01:35:03;;;;;;;3.92;2.05;;;;;;;;;;6121247;23;20064;-76
2021/12/22 01:37:29;;;;;;;4.75;2.42;;;;;;;;;;6146721;23;20029;-77
2021/12/22 01:39:56;;;;;;;5.22;1.90;;;;;;;;;;6146146;23;20331;-77
2021/12/22 01:42:22;;;;;;;3.00;1.90;;;;;;;;;;6147519;23;20443;-78
2021/12/22 01:50:17;;;;;;;3.10;1.65;;;;;;;;;;6147146;23;20028;-76
2021/12/22 01:52:43;;;;;;;3.53;2.33;;;;;;;;;;6145270;23;20059;-77
2021/12/22 01:55:26;;;;;;;3.42;2.00;;;;;;;;;;6146753;23;20076;-77
2021/12/22 01:57:52;;;;;;;3.75;1.98;;;;;;;;;;6146966;23;20326;-76
2021/12/22 02:00:20;;;;;;;3.40;1.77;;;;;;;;;;6146660;23;20002;-77
2021/12/22 02:02:46;;;;;;;3.80;1.83;;;;;;;;;;6147879;23;20007;-75
2021/12/22 02:05:13;;;;;;;4.00;2.13;;;;;;;;;;6147255;23;20512;-78
2021/12/22 02:07:39;;;;;;;2.75;1.80;;;;;;;;;;6148795;23;20002;-77
2021/12/22 02:12:40;;;;;;;3.72;1.90;;;;;;;;;;6148928;23;20519;-79
2021/12/22 02:15:06;;;;;;;2.20;1.63;;;;;;;;;;6147309;23;20005;-77
2021/12/22 02:17:35;;;;;;;5.35;2.45;;;;;;;;;;6145386;23;20224;-75
2021/12/22 02:20:01;;;;;;;2.72;1.80;;;;;;;;;;6140214;23;20011;-77
2021/12/22 02:22:28;;;;;;;3.42;1.65;;;;;;;;;;6142507;23;20021;-76
2021/12/22 02:24:59;;;;;;;3.78;1.80;;;;;;;;;;6143398;23;20017;-75
2021/12/22 02:27:45;;;;;;;2.97;1.80;;;;;;;;;;6142777;23;20008;-78
2021/12/22 02:30:17;;;;;;;3.90;1.67;;;;;;;;;;6142404;23;20235;-75
2021/12/22 02:35:26;;;;;;;5.10;1.80;;;;;;;;;;6152996;23;20013;-76
2021/12/22 02:37:52;;;;;;;4.68;1.80;;;;;;;;;;6142907;23;20021;-77
2021/12/22 02:40:25;;;;;;;2.42;1.90;;;;;;;;;;6116173;23;20010;-75
2021/12/22 02:43:04;;;;;;;5.30;2.30;;;;;;;;;;6142880;23;20483;-77
2021/12/22 02:45:31;;;;;;;4.53;1.90;;;;;;;;;;6141678;23;20020;-77
2021/12/22 02:47:57;;;;;;;3.30;2.00;;;;;;;;;;6140553;23;19997;-77
2021/12/22 02:50:23;;;;;;;4.22;1.85;;;;;;;;;;6141940;23;20005;-76
2021/12/22 02:53:27;;;;;;;3.53;1.60;;;;;;;;;;6139640;23;20004;-76
2021/12/22 02:55:53;;;;;;;;;;;;;;;;;;6141453;23;20010;-76
2021/12/22 02:58:44;;;;;;;2.22;1.40;;;;;;;;;;6140449;23;19904;-76
2021/12/22 03:06:38;;;;;;;5.13;1.88;;;;;;;;;;6152469;23;20022;-76
2021/12/22 03:09:17;;;;;;;3.22;1.80;;;;;;;;;;6141967;23;20006;-76
2021/12/22 03:11:43;;;;;;;2.45;1.55;;;;;;;;;;6140239;23;20005;-78
2021/12/22 03:14:11;;;;;;;2.05;1.65;;;;;;;;;;6141620;23;20005;-76
2021/12/22 03:16:37;;;;;;;2.80;1.67;;;;;;;;;;6140923;23;20010;-77
2021/12/22 03:19:03;;;;;;;2.95;2.08;;;;;;;;;;6143768;23;20040;-75
2021/12/22 03:21:30;;;;;;;4.03;1.95;;;;;;;;;;6143617;23;20006;-77
2021/12/22 03:23:57;;;;;;;3.30;1.80;;;;;;;;;;6140351;23;20025;-78
2021/12/22 03:26:24;;;;;;;2.25;1.85;;;;;;;;;;6143970;23;20019;-77
2021/12/22 03:28:51;;;;;;;3.13;1.63;;;;;;;;;;6144895;23;20002;-78
2021/12/22 03:31:17;;;;;;;4.18;2.10;;;;;;;;;;6118221;23;20010;-76
2021/12/22 03:33:44;;;;;;;3.83;1.85;;;;;;;;;;6143876;23;20080;-75
2021/12/22 03:36:10;;;;;;;3.55;2.13;;;;;;;;;;6144944;23;20002;-76
2021/12/22 03:38:37;;;;;;;2.35;1.70;;;;;;;;;;6145214;23;20218;-76
2021/12/22 03:41:04;;;;;;;4.03;2.22;;;;;;;;;;6144795;23;20012;-76
2021/12/22 03:43:30;;;;;;;5.32;2.20;;;;;;;;;;6144761;23;20521;-77
2021/12/22 03:45:57;;;;;;;3.67;1.70;;;;;;;;;;6141964;23;20088;-78
2021/12/22 03:48:25;;;;;;;5.03;1.95;;;;;;;;;;6145049;23;20060;-78
2021/12/22 03:50:51;;;;;;;3.55;1.92;;;;;;;;;;6144682;23;20012;-78
2021/12/22 03:53:18;;;;;;;2.97;1.50;;;;;;;;;;6144461;23;20025;-76
2021/12/22 03:55:44;;;;;;;3.63;1.73;;;;;;;;;;6142644;23;20009;-77
2021/12/22 03:58:10;;;;;;;4.65;1.85;;;;;;;;;;6144911;23;19998;-76
2021/12/22 04:00:38;;;;;;;3.17;1.70;;;;;;;;;;6144619;23;20009;-76
2021/12/22 04:03:04;;;;;;;2.95;1.75;;;;;;;;;;6141923;23;20077;-76
2021/12/22 04:05:31;;;;;;;4.40;1.80;;;;;;;;;;6140422;23;20014;-76
2021/12/22 04:07:57;;;;;;;4.20;1.80;;;;;;;;;;6142574;23;20055;-76
2021/12/22 04:10:25;;;;;;;2.83;1.70;;;;;;;;;;6142090;23;20128;-77
2021/12/22 04:12:55;;;;;;;4.22;1.55;;;;;;;;;;6142315;23;20012;-76
2021/12/22 04:15:22;;;;;;;3.10;1.80;;;;;;;;;;6140261;23;20331;-77
2021/12/22 04:17:49;;;;;;;2.65;1.83;;;;;;;;;;6141183;23;19997;-77
2021/12/22 04:20:15;;;;;;;3.97;2.10;;;;;;;;;;6115413;23;20342;-77
2021/12/22 04:22:41;;;;;;;2.67;1.90;;;;;;;;;;6140445;23;20092;-76
2021/12/22 04:25:09;;;;;;;3.28;1.75;;;;;;;;;;6142122;23;20016;-79
2021/12/22 04:27:35;;;;;;;4.03;1.80;;;;;;;;;;6115532;23;20006;-76
2021/12/22 04:30:02;;;;;;;3.13;1.95;;;;;;;;;;6141709;23;20013;-76
2021/12/22 04:45:25;;;;;;;2.28;1.98;;;;;;;;;;5095496;27;20439;-73
2021/12/22 04:47:52;;;;;;;2.88;1.60;;;;;;;;;;5097477;28;20032;-73
2021/12/22 04:50:19;;;;;;;5.03;1.52;;;;;;;;;;5097910;28;20024;-73
2021/12/22 04:52:53;;;;;;;3.55;1.90;;;;;;;;;;5087752;28;20466;-74
2021/12/22 04:55:20;;;;;;;3.00;1.42;;;;;;;;;;5089321;28;20054;-73
2021/12/22 04:57:46;;;;;;;3.95;1.67;;;;;;;;;;5097288;28;20028;-74
2021/12/22 05:00:13;;;;;;;1.90;1.70;;;;;;;;;;5090891;28;20027;-73
2021/12/22 05:02:39;;;;;;;2.83;1.45;;;;;;;;;;5096277;28;20349;-74
2021/12/22 05:05:06;;;;;;;8.88;1.48;;;;;;;;;;5095281;28;20029;-74
2021/12/22 05:07:32;;;;;;;2.40;1.38;;;;;;;;;;5086816;28;20039;-74
2021/12/22 05:09:58;;;;;;;1.77;1.40;;;;;;;;;;5092104;28;20024;-73
2021/12/22 05:12:24;;;;;;;3.65;1.63;;;;;;;;;;5095551;28;20039;-74
2021/12/22 05:14:52;;;;;;;3.70;1.55;;;;;;;;;;5088791;28;20062;-73
2021/12/22 05:17:23;;;;;;;4.32;1.77;;;;;;;;;;5092983;28;20748;-74
2021/12/22 05:19:49;;;;;;;3.15;1.73;;;;;;;;;;5090564;28;20160;-75
2021/12/22 05:22:15;;;;;;;3.65;1.33;;;;;;;;;;5090739;28;20070;-74
2021/12/22 05:24:42;;;;;;;2.35;1.52;;;;;;;;;;5095635;28;20511;-73
2021/12/22 05:27:11;;;;;;;3.63;2.08;;;;;;;;;;5091904;28;20031;-74
2021/12/22 05:29:37;;;;;;;3.17;1.55;;;;;;;;;;5091517;28;20097;-73
2021/12/22 05:32:04;;;;;;;4.28;1.60;;;;;;;;;;5093293;28;20620;-73
2021/12/22 05:34:31;;;;;;;3.05;1.70;;;;;;;;;;5092876;28;20036;-74
2021/12/22 05:36:57;;;;;;;1.73;1.40;;;;;;;;;;5084384;28;20748;-74
2021/12/22 05:39:23;;;;;;;2.30;1.60;;;;;;;;;;5088187;28;20035;-73
2021/12/22 05:41:49;;;;;;;2.42;1.70;;;;;;;;;;5084019;28;20077;-73
2021/12/22 05:44:15;;;;;;;5.18;1.85;;;;;;;;;;5089385;28;20576;-73
2021/12/22 05:46:42;;;;;;;3.67;1.58;;;;;;;;;;5073183;28;20611;-73
2021/12/22 05:49:08;;;;;;;5.88;1.90;;;;;;;;;;5084140;28;20603;-74
2021/12/22 05:51:34;;;;;;;2.78;1.60;;;;;;;;;;5073122;28;20076;-73
2021/12/22 05:54:01;;;;;;;3.97;1.50;;;;;;;;;;5077283;28;20032;-74
2021/12/22 05:56:30;;;;;;;6.65;2.38;;;;;;;;;;5074618;28;20023;-74
2021/12/22 05:58:56;;;;;;;2.75;1.60;;;;;;;;;;5072915;28;20119;-74
2021/12/22 06:01:23;;;;;;;3.58;1.40;;;;;;;;;;5073732;28;20126;-77
2021/12/22 06:03:49;;;;;;;1.50;1.10;;;;;;;;;;5066962;28;20089;-74
2021/12/22 06:06:15;;;;;;;2.20;1.40;;;;;;;;;;5077602;28;20879;-74
2021/12/22 06:08:41;;;;;;;2.85;1.38;;;;;;;;;;5074108;28;20533;-73
2021/12/22 06:11:08;;;;;;;2.83;1.73;;;;;;;;;;5071585;28;20056;-78
2021/12/22 06:13:34;;;;;;;3.35;1.58;;;;;;;;;;5074005;28;20531;-80
2021/12/22 06:16:00;;;;;;;1.50;1.15;;;;;;;;;;5069767;28;20037;-79
2021/12/22 06:18:28;;;;;;;2.88;1.50;;;;;;;;;;5070386;28;20028;-78
2021/12/22 06:20:54;;;;;;;1.55;1.30;;;;;;;;;;5070091;28;20110;-75
2021/12/22 06:23:20;;;;;;;2.05;1.60;;;;;;;;;;5078013;28;20032;-75
2021/12/22 06:25:46;;;;;;;7.43;1.40;;;;;;;;;;5067636;28;20031;-79
2021/12/22 06:28:13;;;;;;;2.85;1.70;;;;;;;;;;5081352;28;20583;-74
2021/12/22 06:30:39;;;;;;;2.90;1.40;;;;;;;;;;5083917;28;20032;-75
2021/12/22 06:33:05;;;;;;;2.88;1.50;;;;;;;;;;5074100;28;20476;-76
2021/12/22 06:35:31;;;;;;;2.55;1.65;;;;;;;;;;5067081;28;20081;-75
2021/12/22 06:37:57;;;;;;;4.90;1.52;;;;;;;;;;5080933;28;20031;-74
2021/12/22 06:40:23;;;;;;;2.13;1.38;;;;;;;;;;5075314;28;20025;-75
2021/12/22 06:42:50;;;;;;;3.00;1.50;;;;;;;;;;5075364;28;20595;-78
2021/12/22 06:45:16;;;;;;;2.85;1.70;;;;;;;;;;5075307;28;20062;-75
2021/12/22 06:47:42;;;;;;;1.95;1.23;;;;;;;;;;5073165;28;20024;-76
2021/12/22 06:50:09;;;;;;;2.50;1.55;;;;;;;;;;5080589;28;20039;-75
2021/12/22 06:52:36;;;;;;;3.72;1.30;;;;;;;;;;5076180;28;20027;-77
2021/12/22 06:55:02;;;;;;;3.25;1.60;;;;;;;;;;5071312;28;20051;-76
2021/12/22 06:57:29;;;;;;;5.18;1.70;;;;;;;;;;5067098;28;20020;-77
2021/12/22 06:59:58;;;;;;;1.98;1.33;;;;;;;;;;5079835;28;20116;-82
2021/12/22 07:02:25;;;;;;;3.53;1.50;;;;;;;;;;5081949;28;20031;-77
2021/12/22 07:04:52;;;;;;;2.70;1.40;;;;;;;;;;5080169;28;20056;-77
2021/12/22 07:07:18;;;;;;;4.35;1.92;;;;;;;;;;5068320;28;20030;-77
2021/12/22 07:09:44;;;;;;;40.42;8.95;;;;;;;;;;5073028;28;20024;-75
2021/12/22 07:12:11;;;;;;;22.42;3.97;;;;;;;;;;5073445;28;20096;-75
2021/12/22 07:14:38;;;;;;;6.88;2.67;;;;;;;;;;5071139;28;20121;-75
2021/12/22 07:17:04;;;;;;;6.97;2.83;;;;;;;;;;5068212;28;20090;-76
2021/12/22 07:19:30;;;;;;;9.02;4.70;;;;;;;;;;5069741;28;20028;-76
2021/12/22 07:21:56;;;;;;;10.93;5.75;;;;;;;;;;5074308;28;20031;-75
2021/12/22 07:24:23;;;;;;;15.20;5.72;;;;;;;;;;5070924;28;20046;-75
2021/12/22 07:26:49;;;;;;;13.18;6.70;;;;;;;;;;5068441;28;20089;-75
2021/12/22 07:29:15;;;;;;;12.73;6.90;;;;;;;;;;5065940;28;20024;-76
2021/12/22 07:31:41;;;;;;;9.45;6.18;;;;;;;;;;5086110;28;20467;-75
2021/12/22 07:34:22;;;;;;;9.93;5.50;;;;;;;;;;5079400;28;20032;-74
2021/12/22 07:36:51;;;;;;;8.57;4.95;;;;;;;;;;5078468;28;20046;-75
2021/12/22 07:39:18;;;;;;;9.05;4.50;;;;;;;;;;5071164;28;20016;-76
2021/12/22 07:41:44;;;;;;;11.95;5.18;;;;;;;;;;5071775;28;20033;-77
2021/12/22 07:44:10;;;;;;;7.90;3.67;;;;;;;;;;5075058;28;20083;-77
2021/12/22 07:46:36;;;;;;;8.60;3.47;;;;;;;;;;5074781;28;20027;-78
2021/12/22 07:49:02;;;;;;;5.63;2.75;;;;;;;;;;5074501;28;20063;-78
2021/12/22 07:51:29;;;;;;;5.07;2.45;;;;;;;;;;5075478;28;20052;-75
2021/12/22 07:53:55;;;;;;;3.38;2.35;;;;;;;;;;5066979;28;20097;-75
2021/12/22 07:56:21;;;;;;;6.03;2.60;;;;;;;;;;5068374;28;20479;-75
2021/12/22 07:58:48;;;;;;;12.77;5.47;;;;;;;;;;5070302;28;20545;-77
2021/12/22 08:01:14;;;;;;;8.55;5.30;;;;;;;;;;5071770;28;20027;-82
2021/12/22 08:03:40;;;;;;;8.73;5.80;;;;;;;;;;5067904;28;20589;-79
2021/12/22 08:06:07;;;;;;;8.30;5.65;;;;;;;;;;5076061;28;20500;-80
2021/12/22 08:08:33;;;;;;;10.43;5.38;;;;;;;;;;5068417;28;20078;-76
2021/12/22 08:10:59;;;;;;;11.82;5.20;;;;;;;;;;5076537;28;20467;-74
2021/12/22 08:13:25;;;;;;;15.48;6.63;;;;;;;;;;5071498;28;20027;-74
2021/12/22 08:15:51;;;;;;;13.57;6.35;;;;;;;;;;5071194;28;20032;-74
2021/12/22 08:18:18;;;;;;;15.07;7.20;;;;;;;;;;5073298;28;20024;-76
2021/12/22 08:20:44;;;;;;;15.82;7.07;;;;;;;;;;5066976;28;20032;-77
2021/12/22 08:23:10;;;;;;;12.13;7.32;;;;;;;;;;5071292;28;20052;-77
2021/12/22 08:25:36;;;;;;;14.68;8.15;;;;;;;;;;5067035;28;20549;-78
2021/12/22 08:28:03;;;;;;;10.65;7.20;;;;;;;;;;5072625;28;20031;-83
2021/12/22 08:30:29;;;;;;;18.13;8.43;;;;;;;;;;5066503;28;20025;-73
2021/12/22 08:32:58;;;;;;;13.45;8.63;;;;;;;;;;5068913;28;20059;-72
2021/12/22 08:35:26;;;;;;;11.18;8.35;;;;;;;;;;5065349;28;20036;-73
2021/12/22 08:40:37;;;;;;;10.82;6.03;;;;;;;;;;5072185;28;20129;-75
2021/12/22 08:43:03;;;;;;;9.77;5.68;;;;;;;;;;5076131;28;20032;-73
2021/12/22 08:45:29;;;;;;;17.55;9.20;;;;;;;;;;5074723;28;20102;-71
2021/12/22 08:47:56;;;;;;;12.35;8.40;;;;;;;;;;5075604;28;20028;-71
2021/12/22 08:50:24;;;;;;;10.18;7.57;;;;;;;;;;5068988;28;20030;-73
2021/12/22 08:52:50;;;;;;;12.30;8.15;;;;;;;;;;5075951;28;20027;-73
2021/12/22 08:55:17;;;;;;;14.98;8.18;;;;;;;;;;5075249;28;20024;-74
2021/12/22 08:57:43;;;;;;;12.93;7.30;;;;;;;;;;5069612;28;20439;-71
2021/12/22 09:00:11;;;;;;;11.88;7.68;;;;;;;;;;5076248;28;20024;-72
2021/12/22 09:02:38;;;;;;;14.02;8.55;;;;;;;;;;5077153;28;20032;-73
2021/12/22 09:05:05;;;;;;;13.23;9.07;;;;;;;;;;5074847;28;20032;-73
2021/12/22 09:07:31;;;;;;;9.32;6.05;;;;;;;;;;5072777;28;20036;-77
2021/12/22 09:09:57;;;;;;;11.07;6.15;;;;;;;;;;5068071;28;20036;-72
2021/12/22 09:12:26;;;;;;;9.85;6.47;;;;;;;;;;5070814;28;20024;-72
2021/12/22 09:14:52;;;;;;;10.60;6.90;;;;;;;;;;5065510;28;20587;-73
2021/12/22 09:17:18;;;;;;;8.50;6.20;;;;;;;;;;5069444;28;20372;-73
2021/12/22 09:19:45;;;;;;;12.48;5.85;;;;;;;;;;5065695;28;20202;-81
2021/12/22 09:22:11;;;;;;;7.07;5.57;;;;;;;;;;5077844;28;20032;-72
2021/12/22 09:24:38;;;;;;;8.15;5.20;;;;;;;;;;5071655;28;20391;-72
2021/12/22 09:27:04;;;;;;;5.40;4.25;;;;;;;;;;5076557;28;20601;-74
2021/12/22 09:29:30;;;;;;;5.32;3.75;;;;;;;;;;5077941;28;20453;-72
2021/12/22 09:31:57;;;;;;;7.65;4.18;;;;;;;;;;5072748;28;20024;-72
2021/12/22 09:34:23;;;;;;;8.45;3.83;;;;;;;;;;5068159;28;20541;-73
2021/12/22 09:36:50;;;;;;;5.18;2.97;;;;;;;;;;5075468;28;20036;-73
2021/12/22 09:39:16;;;;;;;5.25;2.63;;;;;;;;;;5078953;28;20024;-75
2021/12/22 09:41:42;;;;;;;5.10;2.90;;;;;;;;;;5076697;28;20031;-77
2021/12/22 09:44:08;;;;;;;4.03;2.95;;;;;;;;;;5075961;28;20056;-73
2021/12/22 09:46:38;;;;;;;4.00;2.70;;;;;;;;;;5091291;28;20034;-73
2021/12/22 09:49:20;;;;;;;4.45;2.80;;;;;;;;;;5079253;28;20012;-73
2021/12/22 09:54:31;;;;;;;8.77;3.88;;;;;;;;;;5070021;28;20063;-73
2021/12/22 09:56:57;;;;;;;5.47;3.50;;;;;;;;;;5077290;28;20024;-72
2021/12/22 09:59:24;;;;;;;9.77;4.10;;;;;;;;;;5096744;28;20100;-72
2021/12/22 10:01:50;;;;;;;7.07;4.47;;;;;;;;;;5077531;28;20039;-72
2021/12/22 10:04:16;;;;;;;10.25;5.00;;;;;;;;;;5073976;28;20058;-74
2021/12/22 10:06:43;;;;;;;6.68;4.38;;;;;;;;;;5068271;28;20016;-78
2021/12/22 10:09:09;;;;;;;7.85;5.32;;;;;;;;;;5073149;28;20112;-72
2021/12/22 10:11:43;;;;;;;9.32;4.97;;;;;;;;;;5081404;28;20505;-72
2021/12/22 10:14:20;;;;;;;5.72;4.10;;;;;;;;;;5074815;28;20066;-72
2021/12/22 10:16:48;;;;;;;5.63;3.50;;;;;;;;;;5070779;28;20055;-73
2021/12/22 10:19:14;;;;;;;4.70;3.50;;;;;;;;;;5072846;28;20813;-73
2021/12/22 10:21:57;;;;;;;6.70;4.95;;;;;;;;;;5069164;28;20035;-72
2021/12/22 10:24:34;;;;;;;8.98;4.80;;;;;;;;;;5069799;28;20029;-73
2021/12/22 10:27:08;;;;;;;9.90;4.53;;;;;;;;;;5069567;28;20017;-72
2021/12/22 10:29:35;;;;;;;6.40;3.63;;;;;;;;;;5072027;28;20032;-72
2021/12/22 10:32:11;;;;;;;5.05;2.63;;;;;;;;;;5077373;28;20070;-71
2021/12/22 10:34:54;;;;;;;3.78;1.63;;;;;;;;;;5076161;28;20037;-73
2021/12/22 10:37:34;;;;;;;2.15;1.58;;;;;;;;;;5084320;28;20023;-71
2021/12/22 10:40:01;;;;;;;2.47;1.73;;;;;;;;;;5075886;28;20396;-73
2021/12/22 10:42:39;;;;;;;2.40;1.50;;;;;;;;;;5073934;28;20036;-72
2021/12/22 10:45:11;;;;;;;3.40;1.98;;;;;;;;;;5075401;28;20123;-78
2021/12/22 10:49:14;;;;;;;5.20;2.65;;;;;;;;;;5076191;28;20073;-72
2021/12/22 10:50:32;;;;;;;5.88;2.70;;;;;;;;;;5075251;28;20585;-79
2021/12/22 10:52:58;;;;;;;166.18;17.40;;;;;;;;;;5075749;28;20493;-75
2021/12/22 10:55:24;;;;;;;25.17;9.07;;;;;;;;;;5073545;28;20040;-72
2021/12/22 10:57:50;;;;;;;12.85;5.35;;;;;;;;;;5072733;28;20037;-77
2021/12/22 11:00:26;;;;;;;18.27;6.60;;;;;;;;;;5077921;28;20041;-73
2021/12/22 11:03:04;;;;;;;10.55;6.55;;;;;;;;;;5077652;28;20039;-73
2021/12/22 11:05:30;;;;;;;7.03;4.45;;;;;;;;;;5077617;28;20024;-73
2021/12/22 11:07:58;;;;;;;20.50;12.95;;;;;;;;;;5075187;28;20038;-74
2021/12/22 11:10:29;;;;;;;21.05;11.18;;;;;;;;;;5078004;28;20120;-74
2021/12/22 11:13:05;;;;;;;5.43;2.60;;;;;;;;;;5074077;28;20028;-75
2021/12/22 11:15:40;;;;;;;4.30;2.38;;;;;;;;;;5075328;28;20029;-73
2021/12/22 11:18:25;;;;;;;4.07;2.33;;;;;;;;;;5074256;28;20529;-73
2021/12/22 11:21:33;;;;;;;3.92;2.00;;;;;;;;;;5072453;28;20028;-77
2021/12/22 11:23:59;;;;;;;3.15;1.90;;;;;;;;;;5060977;28;20048;-73
2021/12/22 11:26:26;;;;;;;2.85;1.60;;;;;;;;;;5072187;28;20032;-74
2021/12/22 11:28:52;;;;;;;3.22;1.80;;;;;;;;;;5071446;28;20042;-73
2021/12/22 11:31:18;;;;;;;5.03;1.80;;;;;;;;;;5076626;28;20407;-74
2021/12/22 11:33:45;;;;;;;1.92;1.60;;;;;;;;;;5069944;28;20491;-88
2021/12/22 11:36:12;;;;;;;3.25;1.58;;;;;;;;;;5071494;28;20019;-74
2021/12/22 11:38:38;;;;;;;2.85;2.03;;;;;;;;;;5074798;28;20086;-73
2021/12/22 11:41:15;;;;;;;6.70;2.15;;;;;;;;;;5070430;28;20028;-72
2021/12/22 11:43:41;;;;;;;4.80;2.20;;;;;;;;;;5075259;28;20433;-71
2021/12/22 11:46:08;;;;;;;4.68;2.20;;;;;;;;;;5079049;28;20192;-73
2021/12/22 11:48:35;;;;;;;5.65;1.88;;;;;;;;;;5069198;28;20086;-74
2021/12/22 11:51:01;;;;;;;3.45;1.90;;;;;;;;;;5075309;28;20068;-73
2021/12/22 11:53:47;;;;;;;2.92;2.03;;;;;;;;;;5071254;28;20041;-72
2021/12/22 11:56:33;;;;;;;2.83;2.05;;;;;;;;;;5077151;28;20061;-73
2021/12/22 11:58:59;;;;;;;2.92;2.22;;;;;;;;;;5070082;28;20499;-74
2021/12/22 12:01:25;;;;;;;2.95;2.20;;;;;;;;;;5071134;28;20361;-72
2021/12/22 12:04:10;;;;;;;5.03;2.47;;;;;;;;;;5080557;28;20095;-72
2021/12/22 12:06:52;;;;;;;3.63;2.38;;;;;;;;;;5068665;28;20024;-72
2021/12/22 12:09:23;;;;;;;3.55;2.40;;;;;;;;;;5070704;28;20043;-72
2021/12/22 12:14:56;;;;;;;4.00;2.08;;;;;;;;;;5068162;28;20036;-71
2021/12/22 12:23:27;;;;;;;3.67;2.30;;;;;;;;;;5078673;28;20030;-71
2021/12/22 12:25:54;;;;;;;3.63;2.30;;;;;;;;;;5072177;28;20028;-75
2021/12/22 12:28:21;;;;;;;3.95;2.67;;;;;;;;;;5073641;28;20115;-72
2021/12/22 12:30:49;;;;;;;7.38;2.30;;;;;;;;;;5073878;28;20037;-71
2021/12/22 12:33:21;;;;;;;4.18;2.65;;;;;;;;;;5074065;28;20121;-71
2021/12/22 12:36:08;;;;;;;3.90;2.13;;;;;;;;;;5070558;28;20034;-72
2021/12/22 12:38:55;;;;;;;3.80;2.53;;;;;;;;;;5083318;28;20527;-72
2021/12/22 12:41:27;;;;;;;4.32;2.28;;;;;;;;;;5066825;28;20020;-71
2021/12/22 12:43:56;;;;;;;3.92;2.38;;;;;;;;;;5078813;28;20052;-71
2021/12/22 12:46:24;;;;;;;5.10;2.40;;;;;;;;;;5072425;28;20074;-71
2021/12/22 12:49:08;;;;;;;3.45;2.50;;;;;;;;;;5067160;28;20035;-72
2021/12/22 12:51:34;;;;;;;4.53;2.58;;;;;;;;;;5069882;28;20024;-72
2021/12/22 12:54:00;;;;;;;6.65;2.85;;;;;;;;;;5069307;28;20031;-72
2021/12/22 12:56:31;;;;;;;5.40;2.85;;;;;;;;;;5072927;28;20033;-74
2021/12/22 12:59:02;;;;;;;3.95;2.67;;;;;;;;;;5091116;28;20581;-72
2021/12/22 13:01:46;;;;;;;5.35;3.95;;;;;;;;;;5076019;28;20501;-72
2021/12/22 13:04:26;;;;;;;3.53;2.70;;;;;;;;;;5068934;28;20565;-72
2021/12/22 13:07:04;;;;;;;4.78;2.47;;;;;;;;;;5074193;28;20064;-71
2021/12/22 13:09:37;;;;;;;5.18;2.30;;;;;;;;;;5074073;28;20383;-72
2021/12/22 13:17:39;;;;;;;3.92;2.90;;;;;;;;;;5076799;28;20059;-73
2021/12/22 13:20:06;;;;;;;3.50;3.00;;;;;;;;;;5073946;28;20035;-75
2021/12/22 13:22:33;;;;;;;6.53;3.80;;;;;;;;;;5071023;28;20025;-76
2021/12/22 13:25:09;;;;;;;3.10;2.25;;;;;;;;;;5068482;28;20033;-76
2021/12/22 13:27:36;;;;;;;3.15;1.92;;;;;;;;;;5070819;28;20036;-75
2021/12/22 13:30:18;;;;;;;3.25;2.17;;;;;;;;;;5072894;28;20469;-76
2021/12/22 13:32:56;;;;;;;2.92;1.80;;;;;;;;;;5067606;28;20032;-75
2021/12/22 13:35:49;;;;;;;3.30;2.00;;;;;;;;;;5066403;28;20045;-75
2021/12/22 13:38:56;;;;;;;3.88;2.20;;;;;;;;;;5074607;28;20041;-75
2021/12/22 13:41:26;;;;;;;3.78;1.88;;;;;;;;;;5053690;28;20032;-75
2021/12/22 13:43:52;;;;;;;2.38;1.92;;;;;;;;;;5073968;28;20067;-75
2021/12/22 13:46:20;;;;;;;2.35;1.98;;;;;;;;;;5074150;28;20062;-75
2021/12/22 13:48:52;;;;;;;3.55;1.95;;;;;;;;;;5064902;28;20024;-75
2021/12/22 13:51:23;;;;;;;2.90;2.20;;;;;;;;;;5067117;28;20036;-75
2021/12/22 13:53:50;;;;;;;2.53;2.08;;;;;;;;;;5067294;28;20114;-76
2021/12/22 13:56:17;;;;;;;2.90;2.00;;;;;;;;;;5065594;28;20267;-75
2021/12/22 13:58:43;;;;;;;5.10;2.15;;;;;;;;;;5069348;28;20147;-75
2021/12/22 14:01:17;;;;;;;2.85;2.00;;;;;;;;;;5074655;28;20027;-75
2021/12/22 14:03:45;;;;;;;5.13;2.30;;;;;;;;;;5070532;28;20236;-75
2021/12/22 14:06:14;;;;;;;3.97;2.25;;;;;;;;;;5060457;28;20021;-75
2021/12/22 14:08:40;;;;;;;3.63;2.00;;;;;;;;;;5074047;28;20031;-75
2021/12/22 14:11:25;;;;;;;6.55;2.08;;;;;;;;;;5070180;28;20021;-74
2021/12/22 14:13:52;;;;;;;3.58;1.95;;;;;;;;;;5071062;28;20067;-75
2021/12/22 14:16:28;;;;;;;3.22;1.90;;;;;;;;;;5073437;28;20035;-74
2021/12/22 14:18:54;;;;;;;3.20;2.05;;;;;;;;;;5067922;28;20511;-74
2021/12/22 14:21:22;;;;;;;5.40;2.28;;;;;;;;;;5078289;28;20487;-75
2021/12/22 14:23:56;;;;;;;3.92;2.33;;;;;;;;;;5078393;28;20717;-75
2021/12/22 14:26:22;;;;;;;2.95;2.13;;;;;;;;;;5070153;28;20032;-74
2021/12/22 14:29:05;;;;;;;3.15;1.95;;;;;;;;;;5070908;28;20775;-74
2021/12/22 14:31:32;;;;;;;4.93;1.92;;;;;;;;;;5069243;28;20055;-74
2021/12/22 14:34:08;;;;;;;2.78;1.98;;;;;;;;;;5074451;28;20449;-74
2021/12/22 14:36:44;;;;;;;2.78;1.90;;;;;;;;;;5068099;28;20029;-74
2021/12/22 14:39:11;;;;;;;4.78;1.88;;;;;;;;;;5074203;28;20035;-74
2021/12/22 14:41:37;;;;;;;3.03;1.60;;;;;;;;;;5063870;28;20032;-74
2021/12/22 14:44:16;;;;;;;3.30;1.58;;;;;;;;;;5069209;28;20040;-74
2021/12/22 14:46:42;;;;;;;3.22;1.67;;;;;;;;;;5074367;28;20492;-76
2021/12/22 14:49:19;;;;;;;3.38;1.90;;;;;;;;;;5065889;28;20054;-75
2021/12/22 14:51:45;;;;;;;3.58;1.80;;;;;;;;;;5064879;28;20024;-76
2021/12/22 14:54:12;;;;;;;3.75;2.17;;;;;;;;;;5067287;28;20109;-75
2021/12/22 14:56:43;;;;;;;2.83;1.90;;;;;;;;;;5075531;28;20016;-75
2021/12/22 14:59:10;;;;;;;2.17;1.75;;;;;;;;;;5073955;28;20039;-76
2021/12/22 15:01:36;;;;;;;5.40;1.98;;;;;;;;;;5073406;28;20072;-75
2021/12/22 15:04:04;;;;;;;4.40;2.05;;;;;;;;;;5068508;28;20064;-75
2021/12/22 15:06:30;;;;;;;3.17;2.28;;;;;;;;;;5069757;28;20404;-76
2021/12/22 15:08:57;;;;;;;6.10;2.17;;;;;;;;;;5072142;28;20245;-75
2021/12/22 15:11:24;;;;;;;4.40;2.25;;;;;;;;;;5073678;28;20035;-75
2021/12/22 15:13:51;;;;;;;5.55;2.33;;;;;;;;;;5069602;28;20174;-76
2021/12/22 15:16:19;;;;;;;6.50;2.08;;;;;;;;;;5069780;28;20560;-75
2021/12/22 15:18:45;;;;;;;3.78;2.30;;;;;;;;;;5083236;28;20108;-76
2021/12/22 15:21:12;;;;;;;3.70;2.25;;;;;;;;;;5076367;28;20028;-75
2021/12/22 15:23:38;;;;;;;3.40;2.22;;;;;;;;;;5068671;28;20040;-76
2021/12/22 15:26:04;;;;;;;4.72;2.15;;;;;;;;;;5066482;28;20025;-76
2021/12/22 15:28:31;;;;;;;15.48;2.65;;;;;;;;;;5062766;28;20089;-77
2021/12/22 15:30:57;;;;;;;7.07;2.28;;;;;;;;;;5069924;28;20076;-75
2021/12/22 15:33:29;;;;;;;4.63;2.00;;;;;;;;;;5067096;28;20028;-77
2021/12/22 15:35:55;;;;;;;5.00;2.40;;;;;;;;;;5068786;28;20067;-76
2021/12/22 15:38:22;;;;;;;3.60;2.58;;;;;;;;;;5065631;28;20052;-76
2021/12/22 15:40:49;;;;;;;3.38;2.13;;;;;;;;;;5074690;28;20096;-76
2021/12/22 15:43:15;;;;;;;3.80;2.33;;;;;;;;;;5080231;28;20044;-77